AirNav   Everest Fuels
 
 927 users online  

8FD4 Wuesthoff Hospital Emergency Heliport
Rockledge, Florida, USA

GOING TO ROCKLEDGE?


FAA INFORMATION EFFECTIVE 05 DECEMBER 2019

Location

FAA Identifier: 8FD4
Lat/Long: 28-20-04.9100N 080-43-24.0600W
28-20.081833N 080-43.401000W
28.3346972,-80.7233500
(estimated)
Elevation: 100 ft. / 30 m (estimated)
Variation: 04W (1990)
Time zone: UTC -5 (UTC -4 during Daylight Saving Time)
Zip code: 32955

Heliport Operations

Heliport use: Private use, MEDICAL USE.
Activation date: 04/1993
Control tower: no
ARTCC: JACKSONVILLE CENTER
FSS: SAINT PETERSBURG FLIGHT SERVICE STATION
Attendance: UNATNDD
Segmented circle: no
Lights: FOR PERIMETER LGTS CALL 407-636-2211.

Heliport Communications

WX AWOS-3 at COI (2.0 nm E): 119.025 (321-986-8864)
WX AWOS-3PT at TIX (12 nm N): 120.625 (321-567-6090)
WX ASOS at MLB (15 nm S): PHONE 321-951-7575
WX AWOS-3 at X21 (18 nm N): 119.725 (321-385-0384)

Nearby radio navigation aids

VOR radial/distance  VOR name  Freq  Var
MLBr348/14.5MELBOURNE VOR/DME110.0007W
ORLr111/34.6ORLANDO VORTAC112.2000E

Heliport Services

Runway Information

Helipad H1

Dimensions: 69 x 69 ft. / 21 x 21 m
Surface: asphalt, in good condition
Runway edge lights: PERI
Latitude: 28-20.081833N
Longitude: 080-43.401000W
Elevation: 100.0 ft.
Traffic pattern: leftleft

Heliport Ownership and Management from official FAA records

Ownership: Privately-owned
Owner: STEWARD ROCKLEDGE HOSPITAL INC
110 LONGWOOD AVE.
ROCKLEDGE, FL 32955
Phone 407-636-2211
Manager: CLARENCE WHIPPLE
110 LONGWOOD AVE.
ROCKLEDGE, FL 32955
Phone 407-636-2211

Additional Remarks

FOR CD CTC ORLANDO APCH AT 407-852-7553.

Instrument Procedures

There are no published instrument procedures at 8FD4.

Some nearby airports with instrument procedures:

KCOI - Merritt Island Airport (2 nm E)
KCOF - Patrick Air Force Base (8 nm SE)
KXMR - Cape Canaveral Air Force Station Skid Strip (11 nm NE)
KTIX - Space Coast Regional Airport (12 nm N)
KMLB - Melbourne International Airport (15 nm S)
KTTS - NASA Shuttle Landing Facility (17 nm N)
X21 - Arthur Dunn Air Park (18 nm N)
 
Loc | Ops | Rwys | IFR | FBO | Links
Com | Nav | Svcs | Stats | Notes


 
Area around 8FD4 (Wuesthoff Hospital Emergency Heliport)
 
Road maps at: MapQuest Bing Google
 
Aerial photo
No photo
 
Sectional chart

 
Airport distance calculator
Flying to Wuesthoff Hospital Emergency Heliport? Find the distance to fly.

From to 8FD4

Sunrise and sunset
Times for 12-Dec-2019
 Local
(UTC-5)
 Zulu
(UTC)
Morning civil twilight06:4111:41
Sunrise07:0712:07
Sunset17:2722:27
Evening civil twilight17:5222:52

Current date and time
Zulu (UTC)  13-Dec-2019 01:31:24
Local (UTC-5)  12-Dec-2019 20:31:24
 
METAR
KCOF 
10nm SE 
130106Z 07023G30KT 1SM RA BR OVC012 21/21 A3015 RMK AO2A VIS 1 RWY21 CIG 005 RWY21 SLP214 $
KTIX 
11nm N 
130050Z 0909G14KT 5SM -RA BKN009 OVC060 23/22 A3018
KXMR 
13nm NE 
130116Z AUTO 09012KT 10SM FEW009 SCT014 BKN023 OVC100 22/21 A3017 RMK AO2 RAE05DZB05E16 CIG 023V030 SLP220 $
KMLB 
15nm S 
130102Z 14005KT 10SM BKN010 BKN029 BKN046 22/20 A3016 RMK AO2 T02170200 $
KTTS 
17nm N 
130111Z AUTO 11008G17KT 10SM -RA BKN014 22/20 A3017 RMK AO2 DZE0057RAB0057 BKN V SCT SLP221 FZRANO $
TAF
KCOF 
10nm SE 
121950Z 1220/1401 10015G20KT 6000 -RA BR BKN015 OVC025 QNH3015INS TEMPO 1220/1222 09020G25KT 0800 RA BKN002 BECMG 1312/1313 16010G15KT 9000 SHRA VCTS SCT009 BKN015CB OVC025 QNH3004INS TEMPO 1315/1318 14020G25KT 1600 TSRA BR SCT007 SCT020CB BKN030 OVC035 BECMG 1323/1324 22010G15KT 9999 NSW SCT025 BKN030 QNH2996INS TX21/1220Z TN20/1309Z
KTIX 
11nm N 
121742Z 1218/1318 07012KT 6SM BR VCSH SCT025 OVC050 TEMPO 1218/1221 3SM -RA BR BKN020 OVC030 FM122100 07013G20KT P6SM VCSH SCT015 BKN025 OVC050 TEMPO 1221/1224 3SM RA BR BKN010 OVC020 FM130200 10011KT P6SM VCSH SCT020 BKN040 OVC060 FM130800 14006KT P6SM FEW030 BKN060 OVC120 FM131400 19008KT P6SM SCT030 BKN050 OVC100
KMLB 
15nm S 
121917Z 1219/1318 07012G18KT 3SM RA BR SCT010 BKN040 OVC060 TEMPO 1219/1221 1SM RA BR BKN008 OVC015 FM122100 07013G20KT 5SM -RA SCT015 BKN025 OVC050 TEMPO 1221/1224 2SM RA BR BKN010 OVC020 FM130200 10011KT P6SM VCSH SCT020 BKN040 OVC060 FM130800 13006KT P6SM FEW030 BKN060 OVC120 FM131400 17008KT P6SM SCT030 BKN050 OVC100
NOTAMs
Click for the latest NOTAMs
NOTAMs are issued by the DoD/FAA and will open in a separate window not controlled by AirNav.

 

 
 

Would you like to see your business listed on this page?

 If your business provides an interesting product or service to pilots, flight crews, aircraft, or users of the Wuesthoff Hospital Emergency Heliport, you should consider listing it here.  To start the listing process, click on the button below
 
Add a business
 

Other Pages about Wuesthoff Hospital Emergency Heliport

Update a link
 
Copyright © AirNav, LLC. All rights reserved. Privacy Policy  Contact